Terminal Aerodrome Forecast
Issued by NWS Central Illinois

Home | Current Version | Previous Version | Text Only | Print | Product List | Glossary On
Versions: 1 2 3 4 5 6 7 8 9 10 11 12 13 14 15 16 17 18 19 20
000
FTUS43 KILX 262342
TAFSPI
TAF
KSPI 262342Z 2700/2724 06007KT P6SM VCSH SCT035 BKN120
     FM270300 10005KT P6SM VCSH SCT035 BKN120
     FM270700 14005KT 4SM -SHRA BR VCTS BKN035CB
     FM271500 17007KT P6SM VCSH BKN035
     FM271800 18009KT P6SM SCT040 BKN250=

USA.gov is the U.S. government's official web portal to all federal, state and local government web resources and services.